createdAt,value
2018-07-31T00:02:05.364Z,5.07
2018-07-31T00:04:33.992Z,5.23
2018-07-31T00:07:02.712Z,5.40
2018-07-31T00:09:31.680Z,5.27
2018-07-31T00:12:00.428Z,5.50
2018-07-31T00:14:29.271Z,5.40
2018-07-31T00:16:58.048Z,5.33
2018-07-31T00:19:26.839Z,5.20
2018-07-31T00:21:55.650Z,5.17
2018-07-31T00:24:24.536Z,5.43
2018-07-31T00:26:53.456Z,5.07
2018-07-31T00:29:22.239Z,5.17
2018-07-31T00:31:51.039Z,5.40
2018-07-31T00:34:19.943Z,5.17
2018-07-31T00:36:48.811Z,4.90
2018-07-31T00:39:17.573Z,4.80
2018-07-31T00:41:46.466Z,5.10
2018-07-31T00:44:15.363Z,5.10
2018-07-31T00:46:44.149Z,5.00
2018-07-31T00:49:12.924Z,5.23
2018-07-31T00:51:41.835Z,5.63
2018-07-31T00:54:10.683Z,5.67
2018-07-31T00:56:39.446Z,5.30
2018-07-31T00:59:08.248Z,5.07
2018-07-31T01:01:37.125Z,5.03
2018-07-31T01:04:05.932Z,5.10
2018-07-31T01:06:40.075Z,5.03
2018-07-31T01:09:09.929Z,5.20
2018-07-31T01:11:39.038Z,5.10
2018-07-31T01:14:09.079Z,5.20
2018-07-31T01:16:39.143Z,5.23
2018-07-31T01:19:08.235Z,5.13
2018-07-31T01:21:37.162Z,5.37
2018-07-31T01:24:06.361Z,5.77
2018-07-31T01:26:35.199Z,5.30
2018-07-31T01:29:04.098Z,5.50
2018-07-31T01:31:32.930Z,4.60
2018-07-31T01:34:01.736Z,5.30
2018-07-31T01:36:30.610Z,5.40
2018-07-31T01:38:59.587Z,5.13
2018-07-31T01:41:28.873Z,5.33
2018-07-31T01:43:57.657Z,5.33
2018-07-31T01:46:26.186Z,5.10
2018-07-31T01:48:54.950Z,5.53
2018-07-31T01:51:23.811Z,5.20
2018-07-31T01:53:52.819Z,4.70
2018-07-31T01:56:21.652Z,5.00
2018-07-31T01:58:51.023Z,5.43
2018-07-31T02:01:19.872Z,5.43
2018-07-31T02:03:48.772Z,4.73
2018-07-31T02:06:17.673Z,5.57
2018-07-31T02:08:46.469Z,5.50
2018-07-31T02:11:15.252Z,5.50
2018-07-31T02:13:44.187Z,6.07
2018-07-31T02:16:13.045Z,5.50
2018-07-31T02:18:41.843Z,5.67
2018-07-31T02:21:10.868Z,5.70
2018-07-31T02:23:39.802Z,6.03
2018-07-31T02:26:08.411Z,5.83
2018-07-31T02:28:37.148Z,5.67
2018-07-31T02:31:05.955Z,5.43
2018-07-31T02:33:34.842Z,5.83
2018-07-31T02:36:03.647Z,6.13
2018-07-31T02:38:32.552Z,5.50
2018-07-31T02:41:01.380Z,5.90
2018-07-31T02:43:30.156Z,5.63
2018-07-31T02:45:58.954Z,5.40
2018-07-31T02:48:27.731Z,5.77
2018-07-31T02:50:56.624Z,5.97
2018-07-31T02:53:25.424Z,5.87
2018-07-31T02:55:54.276Z,5.80
2018-07-31T02:58:23.114Z,6.40
2018-07-31T03:00:51.871Z,5.83
2018-07-31T03:03:20.685Z,5.60
2018-07-31T03:05:49.504Z,5.53
2018-07-31T03:08:18.426Z,5.30
2018-07-31T03:10:47.179Z,5.70
2018-07-31T03:13:15.943Z,6.10
2018-07-31T03:15:44.741Z,6.10
2018-07-31T03:18:13.647Z,6.00
2018-07-31T03:20:42.612Z,6.47
2018-07-31T03:23:11.385Z,5.70
2018-07-31T03:25:40.171Z,5.97
2018-07-31T03:28:09.014Z,6.00
2018-07-31T03:30:37.795Z,6.23
2018-07-31T03:33:06.591Z,6.07
2018-07-31T03:35:35.530Z,5.90
2018-07-31T03:38:04.370Z,5.33
2018-07-31T03:40:33.247Z,5.70
2018-07-31T03:43:02.043Z,6.10
2018-07-31T03:45:30.919Z,6.50
2018-07-31T03:47:59.714Z,6.27
2018-07-31T03:50:28.808Z,6.33
2018-07-31T03:52:57.605Z,5.97
2018-07-31T03:55:26.576Z,5.53
2018-07-31T03:57:55.318Z,5.60
2018-07-31T04:00:24.163Z,6.20
2018-07-31T04:02:53.071Z,5.93
2018-07-31T04:05:21.989Z,5.70
2018-07-31T04:07:50.907Z,6.07
2018-07-31T04:10:19.707Z,6.13
2018-07-31T04:12:48.612Z,6.20
2018-07-31T04:15:17.507Z,6.37
2018-07-31T04:17:50.387Z,5.63
2018-07-31T04:20:19.227Z,6.47
2018-07-31T04:22:48.103Z,6.03
2018-07-31T04:25:17.083Z,6.27
2018-07-31T04:27:45.863Z,6.27
2018-07-31T04:30:14.492Z,6.13
2018-07-31T04:32:43.129Z,6.37
2018-07-31T04:35:11.993Z,5.90
2018-07-31T04:37:40.771Z,6.00
2018-07-31T04:40:09.680Z,6.17
2018-07-31T04:42:38.563Z,6.43
2018-07-31T04:45:09.396Z,6.17
2018-07-31T04:47:38.927Z,6.23
2018-07-31T04:50:08.831Z,6.23
2018-07-31T04:52:37.971Z,6.70
2018-07-31T04:55:06.763Z,6.10
2018-07-31T04:57:35.551Z,6.00
2018-07-31T05:00:06.440Z,6.00
2018-07-31T05:02:35.262Z,6.20
2018-07-31T05:05:04.215Z,6.10
2018-07-31T05:07:37.316Z,6.70
2018-07-31T05:10:10.507Z,6.87
2018-07-31T05:12:39.608Z,6.23
2018-07-31T05:15:08.427Z,6.23
2018-07-31T05:17:38.432Z,6.27
2018-07-31T05:20:08.349Z,5.93
2018-07-31T05:22:37.447Z,6.00
2018-07-31T05:25:06.409Z,6.27
2018-07-31T05:27:35.235Z,5.87
2018-07-31T05:30:05.055Z,6.43
2018-07-31T05:32:33.924Z,6.53
2018-07-31T05:35:02.703Z,5.83
2018-07-31T05:37:31.520Z,6.23
2018-07-31T05:40:00.311Z,5.53
2018-07-31T05:42:29.147Z,5.77
2018-07-31T05:44:57.971Z,6.50
2018-07-31T05:47:26.640Z,6.23
2018-07-31T05:49:55.348Z,6.20
2018-07-31T05:52:24.139Z,6.50
2018-07-31T05:54:52.939Z,6.40
2018-07-31T05:57:21.738Z,7.63
2018-07-31T05:59:50.543Z,6.27
2018-07-31T06:02:19.326Z,5.90
2018-07-31T06:04:48.176Z,6.30
2018-07-31T06:07:16.994Z,6.67
2018-07-31T06:09:45.788Z,5.97
2018-07-31T06:12:14.563Z,5.83
2018-07-31T06:14:43.334Z,6.30
2018-07-31T06:17:12.139Z,5.97
2018-07-31T06:19:41.051Z,5.70
2018-07-31T06:22:09.896Z,6.20
2018-07-31T06:24:38.715Z,8.80
2018-07-31T06:27:07.580Z,5.87
2018-07-31T06:29:36.746Z,5.90
2018-07-31T06:32:05.527Z,5.90
2018-07-31T06:34:34.297Z,5.03
2018-07-31T06:37:03.146Z,5.83
2018-07-31T06:39:31.965Z,5.27
2018-07-31T06:42:00.804Z,6.53
2018-07-31T06:44:29.604Z,5.60
2018-07-31T06:46:58.420Z,5.47
2018-07-31T06:49:27.179Z,5.30
2018-07-31T06:51:55.998Z,5.43
2018-07-31T06:54:24.839Z,5.43
2018-07-31T06:56:53.943Z,5.60
2018-07-31T06:59:22.747Z,5.60
2018-07-31T07:01:51.552Z,7.30
2018-07-31T07:04:20.320Z,5.60
2018-07-31T07:06:49.207Z,5.03
2018-07-31T07:09:18.094Z,5.17
2018-07-31T07:11:46.896Z,5.57
2018-07-31T07:14:15.684Z,5.30
2018-07-31T07:16:44.475Z,5.10
2018-07-31T07:19:13.290Z,5.40
2018-07-31T07:21:42.100Z,5.77
2018-07-31T07:24:10.895Z,6.17
2018-07-31T07:26:39.692Z,5.23
2018-07-31T07:29:08.499Z,5.60
2018-07-31T07:31:37.314Z,6.23
2018-07-31T07:34:06.410Z,7.07
2018-07-31T07:36:35.211Z,5.77
2018-07-31T07:39:06.268Z,5.53
2018-07-31T07:41:35.060Z,5.47
2018-07-31T07:44:03.847Z,6.10
2018-07-31T07:46:32.619Z,7.70
2018-07-31T07:49:01.420Z,8.37
2018-07-31T07:51:30.187Z,7.50
2018-07-31T07:53:59.029Z,5.97
2018-07-31T07:56:27.828Z,5.70
2018-07-31T07:58:56.627Z,6.03
2018-07-31T08:01:25.436Z,5.87
2018-07-31T08:03:54.267Z,6.80
2018-07-31T08:06:23.036Z,5.53
2018-07-31T08:08:51.833Z,5.53
2018-07-31T08:11:20.612Z,6.07
2018-07-31T08:13:49.563Z,5.10
2018-07-31T08:16:18.326Z,5.40
2018-07-31T08:18:47.128Z,5.10
2018-07-31T08:21:15.919Z,5.20
2018-07-31T08:23:44.892Z,6.27
2018-07-31T08:26:13.524Z,5.73
2018-07-31T08:28:42.234Z,6.03
2018-07-31T08:31:11.023Z,5.37
2018-07-31T08:33:39.842Z,5.40
2018-07-31T08:36:08.574Z,5.67
2018-07-31T08:38:37.403Z,4.90
2018-07-31T08:41:06.321Z,5.03
2018-07-31T08:43:35.102Z,4.90
2018-07-31T08:46:03.891Z,4.90
2018-07-31T08:48:32.691Z,4.83
2018-07-31T08:51:01.480Z,5.03
2018-07-31T08:53:30.284Z,5.37
2018-07-31T08:55:59.075Z,5.30
2018-07-31T08:58:27.877Z,4.85
2018-07-31T09:00:56.683Z,4.83
2018-07-31T09:03:25.468Z,5.03
2018-07-31T09:05:54.243Z,5.97
2018-07-31T09:08:23.116Z,5.25
2018-07-31T09:10:51.905Z,5.15
2018-07-31T09:13:20.679Z,5.20
2018-07-31T09:15:49.536Z,5.28
2018-07-31T09:18:18.400Z,5.30
2018-07-31T09:20:47.223Z,4.85
2018-07-31T09:23:15.975Z,4.85
2018-07-31T09:25:47.478Z,5.45
2018-07-31T09:28:17.617Z,5.50
2018-07-31T09:30:51.856Z,4.90
2018-07-31T09:33:20.515Z,5.20
2018-07-31T09:35:49.300Z,4.72
2018-07-31T09:38:18.156Z,4.87
2018-07-31T09:40:46.915Z,5.00
2018-07-31T09:43:15.704Z,4.75
2018-07-31T09:45:44.548Z,5.00
2018-07-31T09:48:13.322Z,4.87
2018-07-31T09:50:42.124Z,5.10
2018-07-31T09:53:10.997Z,5.05
2018-07-31T09:55:39.517Z,6.30
2018-07-31T09:58:08.223Z,10.05
2018-07-31T10:00:42.313Z,14.75
2018-07-31T10:03:11.196Z,4.65
2018-07-31T10:05:39.935Z,4.62
2018-07-31T10:08:08.711Z,4.40
2018-07-31T10:10:37.487Z,4.00
2018-07-31T10:13:06.280Z,4.37
2018-07-31T10:15:35.064Z,4.58
2018-07-31T10:18:03.941Z,4.53
2018-07-31T10:20:32.641Z,4.75
2018-07-31T10:23:01.400Z,4.67
2018-07-31T10:25:30.267Z,4.60
2018-07-31T10:27:59.055Z,4.12
2018-07-31T10:30:27.930Z,4.55
2018-07-31T10:32:56.691Z,4.47
2018-07-31T10:35:25.462Z,4.67
2018-07-31T10:37:54.248Z,4.45
2018-07-31T10:40:23.028Z,4.72
2018-07-31T10:42:51.816Z,4.50
2018-07-31T10:45:20.596Z,4.15
2018-07-31T10:47:49.389Z,4.47
2018-07-31T10:50:18.173Z,4.25
2018-07-31T10:52:46.923Z,4.72
2018-07-31T10:55:15.752Z,4.37
2018-07-31T10:57:44.536Z,4.00
2018-07-31T11:00:13.403Z,4.00
2018-07-31T11:02:42.100Z,4.03
2018-07-31T11:05:10.863Z,4.05
2018-07-31T11:07:39.795Z,4.20
2018-07-31T11:10:08.611Z,3.98
2018-07-31T11:12:37.463Z,4.30
2018-07-31T11:15:06.395Z,3.98
2018-07-31T11:17:35.230Z,4.28
2018-07-31T11:20:04.403Z,4.15
2018-07-31T11:22:33.184Z,4.22
2018-07-31T11:25:02.001Z,4.03
2018-07-31T11:27:30.844Z,3.92
2018-07-31T11:29:59.587Z,3.70
2018-07-31T11:32:28.423Z,3.55
2018-07-31T11:34:57.209Z,3.58
2018-07-31T11:37:26.123Z,3.35
2018-07-31T11:39:55.160Z,3.40
2018-07-31T11:42:23.927Z,3.90
2018-07-31T11:44:52.736Z,3.62
2018-07-31T11:47:21.555Z,3.80
2018-07-31T11:49:50.410Z,3.85
2018-07-31T11:52:18.912Z,4.62
2018-07-31T11:54:47.653Z,3.50
2018-07-31T11:57:16.231Z,4.17
2018-07-31T11:59:44.928Z,3.67
2018-07-31T12:02:13.716Z,3.37
2018-07-31T12:04:42.508Z,3.50
2018-07-31T12:07:11.291Z,3.90
2018-07-31T12:09:40.404Z,3.60
2018-07-31T12:12:09.195Z,3.65
2018-07-31T12:14:37.980Z,3.65
2018-07-31T12:17:07.035Z,3.52
2018-07-31T12:19:35.899Z,3.60
2018-07-31T12:22:05.156Z,3.67
2018-07-31T12:24:33.950Z,3.72
2018-07-31T12:27:02.788Z,3.60
2018-07-31T12:29:31.755Z,3.20
2018-07-31T12:32:00.527Z,3.52
2018-07-31T12:34:29.371Z,3.83
2018-07-31T12:36:58.211Z,4.12
2018-07-31T12:39:27.035Z,3.70
2018-07-31T12:41:55.837Z,3.65
2018-07-31T12:44:24.613Z,3.25
2018-07-31T12:46:53.394Z,3.40
2018-07-31T12:49:22.164Z,3.52
2018-07-31T12:51:50.983Z,3.27
2018-07-31T12:54:19.752Z,3.55
2018-07-31T12:56:48.633Z,3.52
2018-07-31T12:59:17.409Z,3.30
2018-07-31T13:01:46.219Z,3.62
2018-07-31T13:04:15.011Z,3.20
2018-07-31T13:06:43.910Z,3.72
2018-07-31T13:09:12.669Z,3.62
2018-07-31T13:11:41.472Z,3.40
2018-07-31T13:14:10.256Z,3.25
2018-07-31T13:16:39.047Z,3.40
2018-07-31T13:19:07.836Z,3.70
2018-07-31T13:21:36.664Z,3.58
2018-07-31T13:24:05.439Z,3.45
2018-07-31T13:26:38.028Z,3.27
2018-07-31T13:29:08.239Z,3.30
2018-07-31T13:31:37.031Z,3.77
2018-07-31T13:34:05.651Z,3.95
2018-07-31T13:36:34.378Z,3.15
2018-07-31T13:39:03.262Z,4.03
2018-07-31T13:41:32.066Z,3.65
2018-07-31T13:44:00.976Z,3.22
2018-07-31T13:46:29.635Z,5.70
2018-07-31T13:48:58.411Z,5.30
2018-07-31T13:51:27.220Z,3.98
2018-07-31T13:53:55.993Z,4.00
2018-07-31T13:56:24.821Z,4.03
2018-07-31T13:58:53.644Z,3.27
2018-07-31T14:01:22.437Z,4.37
2018-07-31T14:03:51.257Z,4.45
2018-07-31T14:06:20.062Z,5.17
2018-07-31T14:08:48.856Z,3.80
2018-07-31T14:11:17.688Z,3.80
2018-07-31T14:13:46.790Z,4.47
2018-07-31T14:16:15.704Z,4.83
2018-07-31T14:18:44.533Z,3.92
2018-07-31T14:21:13.547Z,3.47
2018-07-31T14:23:42.322Z,3.60
2018-07-31T14:26:11.119Z,3.85
2018-07-31T14:28:39.944Z,4.42
2018-07-31T14:31:08.859Z,4.40
2018-07-31T14:33:37.627Z,4.00
2018-07-31T14:36:06.534Z,4.10
2018-07-31T14:38:35.321Z,4.20
2018-07-31T14:41:04.139Z,4.40
2018-07-31T14:43:32.943Z,4.00
2018-07-31T14:46:01.772Z,4.28
2018-07-31T14:48:30.547Z,4.20
2018-07-31T14:50:59.345Z,4.50
2018-07-31T14:53:28.107Z,4.58
2018-07-31T14:55:56.996Z,4.62
2018-07-31T14:58:25.860Z,4.20
2018-07-31T15:00:54.647Z,4.62
2018-07-31T15:03:23.458Z,4.25
2018-07-31T15:05:52.222Z,4.30
2018-07-31T15:08:21.179Z,4.25
2018-07-31T15:10:50.017Z,4.17
2018-07-31T15:13:18.743Z,5.30
2018-07-31T15:15:47.541Z,4.20
2018-07-31T15:18:16.345Z,4.55
2018-07-31T15:20:45.165Z,4.22
2018-07-31T15:23:14.319Z,4.53
2018-07-31T15:25:43.110Z,4.33
2018-07-31T15:28:11.977Z,3.98
2018-07-31T15:30:40.675Z,4.22
2018-07-31T15:33:09.507Z,6.15
2018-07-31T15:35:38.520Z,4.15
2018-07-31T15:38:07.450Z,4.30
2018-07-31T15:40:36.260Z,4.17
2018-07-31T15:43:05.075Z,4.20
2018-07-31T15:45:33.896Z,4.53
2018-07-31T15:48:02.760Z,4.95
2018-07-31T15:50:31.524Z,5.00
2018-07-31T15:53:00.328Z,4.50
2018-07-31T15:55:29.195Z,4.28
2018-07-31T15:57:57.972Z,4.53
2018-07-31T16:00:26.748Z,3.85
2018-07-31T16:02:55.548Z,4.08
2018-07-31T16:05:24.318Z,4.40
2018-07-31T16:07:53.119Z,4.40
2018-07-31T16:10:21.899Z,4.28
2018-07-31T16:12:50.692Z,4.70
2018-07-31T16:15:19.552Z,4.62
2018-07-31T16:17:48.392Z,4.30
2018-07-31T16:20:17.203Z,4.50
2018-07-31T16:22:46.033Z,4.12
2018-07-31T16:25:14.840Z,3.85
2018-07-31T16:27:43.671Z,4.00
2018-07-31T16:30:12.531Z,4.05
2018-07-31T16:32:41.318Z,3.85
2018-07-31T16:35:10.080Z,4.03
2018-07-31T16:37:38.899Z,4.28
2018-07-31T16:40:07.675Z,3.90
2018-07-31T16:42:36.468Z,4.50
2018-07-31T16:45:05.304Z,4.00
2018-07-31T16:47:34.251Z,4.15
2018-07-31T16:50:03.040Z,4.05
2018-07-31T16:52:31.851Z,4.05
2018-07-31T16:55:00.735Z,4.87
2018-07-31T16:57:29.300Z,4.53
2018-07-31T16:59:57.999Z,4.45
2018-07-31T17:02:26.799Z,4.20
2018-07-31T17:04:55.573Z,4.30
2018-07-31T17:07:24.360Z,4.17
2018-07-31T17:09:53.267Z,4.47
2018-07-31T17:12:22.056Z,5.45
2018-07-31T17:14:50.830Z,5.75
2018-07-31T17:17:19.543Z,5.60
2018-07-31T17:19:48.244Z,4.62
2018-07-31T17:22:17.019Z,4.53
2018-07-31T17:24:45.812Z,4.90
2018-07-31T17:27:14.603Z,4.28
2018-07-31T17:29:43.591Z,4.60
2018-07-31T17:32:12.402Z,4.42
2018-07-31T17:34:41.279Z,5.12
2018-07-31T17:37:10.065Z,5.40
2018-07-31T17:39:38.879Z,5.03
2018-07-31T17:42:07.664Z,5.70
2018-07-31T17:44:36.604Z,5.25
2018-07-31T17:47:05.399Z,4.97
2018-07-31T17:49:34.199Z,5.12
2018-07-31T17:52:03.072Z,5.00
2018-07-31T17:54:31.996Z,4.95
2018-07-31T17:57:00.798Z,5.60
2018-07-31T17:59:29.603Z,5.80
2018-07-31T18:01:58.390Z,5.42
2018-07-31T18:04:27.987Z,4.75
2018-07-31T18:06:56.755Z,5.05
2018-07-31T18:09:25.685Z,5.28
2018-07-31T18:11:54.480Z,4.90
2018-07-31T18:14:23.451Z,5.00
2018-07-31T18:16:52.091Z,5.42
2018-07-31T18:19:20.888Z,4.87
2018-07-31T18:21:49.710Z,5.45
2018-07-31T18:24:18.651Z,5.55
2018-07-31T18:26:47.455Z,5.20
2018-07-31T18:29:16.334Z,5.15
2018-07-31T18:31:45.102Z,5.58
2018-07-31T18:34:13.884Z,4.97
2018-07-31T18:36:43.063Z,5.35
2018-07-31T18:39:13.117Z,5.12
2018-07-31T18:41:42.451Z,5.67
2018-07-31T18:44:11.514Z,5.03
2018-07-31T18:46:40.971Z,6.47
2018-07-31T18:49:09.779Z,5.70
2018-07-31T18:51:38.623Z,5.92
2018-07-31T18:54:07.458Z,5.83
2018-07-31T18:56:36.661Z,5.75
2018-07-31T18:59:05.511Z,5.47
2018-07-31T19:01:34.370Z,5.60
2018-07-31T19:04:03.127Z,5.63
2018-07-31T19:06:31.923Z,5.90
2018-07-31T19:09:00.835Z,5.73
2018-07-31T19:11:29.695Z,6.23
2018-07-31T19:13:58.532Z,5.33
2018-07-31T19:16:27.326Z,5.70
2018-07-31T19:18:56.143Z,5.33
2018-07-31T19:21:24.984Z,5.47
2018-07-31T19:23:53.750Z,6.20
2018-07-31T19:26:22.528Z,5.63
2018-07-31T19:28:51.462Z,5.83
2018-07-31T19:31:20.260Z,5.87
2018-07-31T19:33:49.097Z,6.80
2018-07-31T19:36:17.988Z,5.50
2018-07-31T19:38:46.840Z,5.60
2018-07-31T19:41:15.901Z,5.20
2018-07-31T19:43:44.771Z,4.93
2018-07-31T19:46:13.499Z,4.97
2018-07-31T19:48:42.175Z,5.27
2018-07-31T19:51:11.050Z,5.43
2018-07-31T19:53:39.847Z,5.40
2018-07-31T19:56:08.660Z,6.07
2018-07-31T19:58:37.518Z,5.40
2018-07-31T20:01:06.424Z,5.50
2018-07-31T20:03:35.219Z,5.37
2018-07-31T20:06:04.034Z,5.53
2018-07-31T20:08:32.919Z,5.30
2018-07-31T20:11:01.743Z,5.23
2018-07-31T20:13:30.520Z,6.10
2018-07-31T20:15:59.387Z,5.63
2018-07-31T20:18:28.275Z,5.70
2018-07-31T20:20:57.122Z,5.67
2018-07-31T20:23:25.869Z,5.80
2018-07-31T20:25:54.774Z,5.60
2018-07-31T20:28:23.503Z,5.50
2018-07-31T20:30:52.240Z,5.47
2018-07-31T20:33:21.115Z,5.77
2018-07-31T20:35:50.159Z,5.60
2018-07-31T20:38:18.975Z,5.63
2018-07-31T20:40:47.758Z,5.97
2018-07-31T20:43:16.751Z,5.47
2018-07-31T20:45:45.584Z,6.33
2018-07-31T20:48:20.816Z,6.10
2018-07-31T20:50:49.632Z,5.50
2018-07-31T20:53:18.427Z,5.83
2018-07-31T20:55:47.239Z,5.53
2018-07-31T20:58:16.071Z,5.67
2018-07-31T21:00:44.870Z,5.17
2018-07-31T21:03:13.448Z,5.47
2018-07-31T21:05:42.200Z,5.33
2018-07-31T21:08:11.011Z,5.37
2018-07-31T21:10:39.839Z,5.23
2018-07-31T21:13:08.735Z,5.43
2018-07-31T21:15:38.211Z,5.87
2018-07-31T21:18:07.105Z,5.27
2018-07-31T21:20:35.940Z,5.70
2018-07-31T21:23:04.733Z,5.50
2018-07-31T21:25:33.555Z,5.90
2018-07-31T21:28:02.923Z,5.30
2018-07-31T21:30:31.952Z,5.60
2018-07-31T21:33:00.818Z,5.17
2018-07-31T21:35:29.896Z,5.40
2018-07-31T21:37:58.768Z,5.77
2018-07-31T21:40:27.868Z,5.07
2018-07-31T21:42:56.696Z,5.33
2018-07-31T21:45:25.504Z,5.30
2018-07-31T21:47:54.358Z,5.47
2018-07-31T21:50:23.188Z,5.43
2018-07-31T21:52:52.025Z,5.10
2018-07-31T21:55:20.853Z,5.40
2018-07-31T21:57:49.677Z,5.30
2018-07-31T22:00:18.532Z,4.83
2018-07-31T22:02:47.360Z,5.60
2018-07-31T22:05:16.231Z,4.90
2018-07-31T22:07:45.027Z,5.37
2018-07-31T22:10:13.895Z,4.70
2018-07-31T22:12:42.697Z,4.53
2018-07-31T22:15:12.392Z,5.10
2018-07-31T22:17:42.088Z,5.03
2018-07-31T22:20:10.937Z,5.03
2018-07-31T22:22:39.775Z,4.80
2018-07-31T22:25:08.388Z,4.93
2018-07-31T22:27:37.183Z,4.90
2018-07-31T22:30:06.091Z,5.20
2018-07-31T22:32:34.828Z,4.80
2018-07-31T22:35:03.681Z,4.87
2018-07-31T22:37:32.543Z,4.77
2018-07-31T22:40:01.474Z,4.73
2018-07-31T22:42:30.275Z,4.93
2018-07-31T22:44:59.214Z,5.10
2018-07-31T22:47:27.999Z,4.60
2018-07-31T22:49:56.798Z,4.30
2018-07-31T22:52:25.599Z,5.40
2018-07-31T22:54:54.438Z,4.57
2018-07-31T22:57:23.283Z,5.37
2018-07-31T22:59:52.066Z,4.93
2018-07-31T23:02:22.064Z,4.90
2018-07-31T23:04:50.930Z,4.87
2018-07-31T23:07:20.741Z,4.90
2018-07-31T23:09:55.001Z,4.80
2018-07-31T23:12:23.794Z,4.87
2018-07-31T23:14:52.719Z,4.80
2018-07-31T23:17:21.699Z,4.70
2018-07-31T23:19:50.522Z,4.83
2018-07-31T23:22:51.947Z,4.93
2018-07-31T23:25:20.725Z,4.77
2018-07-31T23:27:49.516Z,4.87
2018-07-31T23:30:18.320Z,5.13
2018-07-31T23:32:47.965Z,4.73
2018-07-31T23:35:16.970Z,4.77
2018-07-31T23:37:45.806Z,5.20
2018-07-31T23:40:14.667Z,5.17
2018-07-31T23:42:44.507Z,5.20
2018-07-31T23:45:13.404Z,4.83
2018-07-31T23:47:42.256Z,5.03
2018-07-31T23:50:11.017Z,5.07
2018-07-31T23:52:39.864Z,5.20
2018-07-31T23:55:08.926Z,5.70
2018-07-31T23:57:38.087Z,5.17
